sensor_id;sensor_type;location;lat;lon;timestamp;pressure;altitude;pressure_sealevel;temperature;humidity
21129;BME280;10722;51.910;8.352;2022-12-18T00:00:00;102122.75;;;-11.12;96.05
21129;BME280;10722;51.910;8.352;2022-12-18T00:02:51;102116.91;;;-11.25;95.81
21129;BME280;10722;51.910;8.352;2022-12-18T00:05:49;102123.09;;;-10.89;96.49
21129;BME280;10722;51.910;8.352;2022-12-18T00:08:35;102125.13;;;-10.79;96.17
21129;BME280;10722;51.910;8.352;2022-12-18T00:11:23;102124.78;;;-11.02;96.08
21129;BME280;10722;51.910;8.352;2022-12-18T00:14:11;102131.56;;;-11.01;96.21
21129;BME280;10722;51.910;8.352;2022-12-18T00:16:57;102129.25;;;-10.99;96.10
21129;BME280;10722;51.910;8.352;2022-12-18T00:19:43;102134.50;;;-10.91;96.25
21129;BME280;10722;51.910;8.352;2022-12-18T00:22:28;102132.00;;;-10.91;95.98
21129;BME280;10722;51.910;8.352;2022-12-18T00:25:14;102132.59;;;-10.86;95.43
21129;BME280;10722;51.910;8.352;2022-12-18T00:28:00;102122.72;;;-10.92;95.62
21129;BME280;10722;51.910;8.352;2022-12-18T00:30:46;102139.06;;;-10.81;96.12
21129;BME280;10722;51.910;8.352;2022-12-18T00:33:32;102142.47;;;-10.80;95.99
21129;BME280;10722;51.910;8.352;2022-12-18T00:36:20;102145.25;;;-10.85;96.76
21129;BME280;10722;51.910;8.352;2022-12-18T00:39:06;102154.41;;;-10.58;96.60
21129;BME280;10722;51.910;8.352;2022-12-18T00:41:51;102157.75;;;-10.38;96.57
21129;BME280;10722;51.910;8.352;2022-12-18T00:44:37;102152.94;;;-10.36;95.99
21129;BME280;10722;51.910;8.352;2022-12-18T00:47:23;102143.34;;;-10.33;95.88
21129;BME280;10722;51.910;8.352;2022-12-18T00:50:09;102143.31;;;-10.26;96.11
21129;BME280;10722;51.910;8.352;2022-12-18T00:53:31;102141.03;;;-10.24;96.10
21129;BME280;10722;51.910;8.352;2022-12-18T00:57:05;102147.13;;;-10.15;96.20
21129;BME280;10722;51.910;8.352;2022-12-18T01:00:16;102137.28;;;-10.13;95.96
21129;BME280;10722;51.910;8.352;2022-12-18T01:03:05;102131.00;;;-10.24;95.67
21129;BME280;10722;51.910;8.352;2022-12-18T01:06:11;102127.41;;;-10.26;95.75
21129;BME280;10722;51.910;8.352;2022-12-18T01:08:57;102130.13;;;-10.18;95.72
21129;BME280;10722;51.910;8.352;2022-12-18T01:11:43;102122.25;;;-10.21;95.88
21129;BME280;10722;51.910;8.352;2022-12-18T01:14:28;102115.44;;;-10.29;95.79
21129;BME280;10722;51.910;8.352;2022-12-18T01:17:14;102120.47;;;-10.22;96.12
21129;BME280;10722;51.910;8.352;2022-12-18T01:19:59;102124.19;;;-10.32;96.22
21129;BME280;10722;51.910;8.352;2022-12-18T01:22:46;102134.84;;;-10.06;96.12
21129;BME280;10722;51.910;8.352;2022-12-18T01:25:33;102123.28;;;-9.92;95.39
21129;BME280;10722;51.910;8.352;2022-12-18T01:28:18;102115.75;;;-9.99;95.19
21129;BME280;10722;51.910;8.352;2022-12-18T01:31:25;102110.13;;;-10.18;95.14
21129;BME280;10722;51.910;8.352;2022-12-18T01:34:11;102111.31;;;-10.35;94.75
21129;BME280;10722;51.910;8.352;2022-12-18T01:36:57;102122.03;;;-10.36;95.33
21129;BME280;10722;51.910;8.352;2022-12-18T01:39:43;102120.66;;;-10.27;95.43
21129;BME280;10722;51.910;8.352;2022-12-18T01:42:28;102112.16;;;-10.42;95.31
21129;BME280;10722;51.910;8.352;2022-12-18T01:48:02;102125.25;;;-10.30;95.30
21129;BME280;10722;51.910;8.352;2022-12-18T01:50:48;102119.44;;;-10.51;95.33
21129;BME280;10722;51.910;8.352;2022-12-18T01:53:34;102123.16;;;-10.54;95.30
21129;BME280;10722;51.910;8.352;2022-12-18T01:56:21;102125.81;;;-10.60;95.49
21129;BME280;10722;51.910;8.352;2022-12-18T01:59:26;102124.19;;;-10.59;95.36
21129;BME280;10722;51.910;8.352;2022-12-18T02:02:39;102134.00;;;-10.34;95.57
21129;BME280;10722;51.910;8.352;2022-12-18T02:14:45;102126.38;;;-10.21;94.97
21129;BME280;10722;51.910;8.352;2022-12-18T02:17:52;102130.47;;;-10.29;95.06
21129;BME280;10722;51.910;8.352;2022-12-18T02:20:45;102136.38;;;-10.28;95.03
21129;BME280;10722;51.910;8.352;2022-12-18T02:23:47;102130.66;;;-10.27;95.04
21129;BME280;10722;51.910;8.352;2022-12-18T02:26:45;102123.38;;;-10.53;94.86
21129;BME280;10722;51.910;8.352;2022-12-18T02:29:52;102113.50;;;-10.78;94.58
21129;BME280;10722;51.910;8.352;2022-12-18T02:32:48;102096.69;;;-11.07;94.66
21129;BME280;10722;51.910;8.352;2022-12-18T02:35:36;102103.63;;;-11.11;95.26
21129;BME280;10722;51.910;8.352;2022-12-18T02:38:25;102114.50;;;-10.91;95.26
21129;BME280;10722;51.910;8.352;2022-12-18T02:41:11;102107.31;;;-10.75;95.27
21129;BME280;10722;51.910;8.352;2022-12-18T02:44:08;102116.47;;;-10.68;95.44
21129;BME280;10722;51.910;8.352;2022-12-18T02:46:53;102119.34;;;-10.65;95.55
21129;BME280;10722;51.910;8.352;2022-12-18T02:50:02;102116.16;;;-10.64;95.80
21129;BME280;10722;51.910;8.352;2022-12-18T02:56:13;102120.47;;;-10.56;96.21
21129;BME280;10722;51.910;8.352;2022-12-18T02:59:09;102132.28;;;-10.55;96.24
21129;BME280;10722;51.910;8.352;2022-12-18T03:02:21;102141.25;;;-10.50;96.28
21129;BME280;10722;51.910;8.352;2022-12-18T03:05:39;102128.75;;;-10.50;95.92
21129;BME280;10722;51.910;8.352;2022-12-18T03:08:29;102132.31;;;-10.48;95.19
21129;BME280;10722;51.910;8.352;2022-12-18T03:11:16;102119.50;;;-10.36;94.84
21129;BME280;10722;51.910;8.352;2022-12-18T03:14:03;102104.09;;;-10.47;94.83
21129;BME280;10722;51.910;8.352;2022-12-18T03:16:53;102095.41;;;-10.63;94.88
21129;BME280;10722;51.910;8.352;2022-12-18T03:19:40;102108.75;;;-10.43;95.02
21129;BME280;10722;51.910;8.352;2022-12-18T03:22:30;102104.34;;;-10.31;95.06
21129;BME280;10722;51.910;8.352;2022-12-18T03:25:18;102117.97;;;-10.29;94.46
21129;BME280;10722;51.910;8.352;2022-12-18T03:28:05;102109.47;;;-10.44;94.51
21129;BME280;10722;51.910;8.352;2022-12-18T03:30:56;102111.63;;;-10.47;94.71
21129;BME280;10722;51.910;8.352;2022-12-18T03:33:51;102114.81;;;-10.48;95.03
21129;BME280;10722;51.910;8.352;2022-12-18T03:36:37;102112.94;;;-10.63;94.77
21129;BME280;10722;51.910;8.352;2022-12-18T03:39:22;102120.28;;;-10.57;94.98
21129;BME280;10722;51.910;8.352;2022-12-18T03:42:16;102117.56;;;-10.66;94.42
21129;BME280;10722;51.910;8.352;2022-12-18T03:45:31;102113.09;;;-10.89;94.76
21129;BME280;10722;51.910;8.352;2022-12-18T03:48:28;102127.63;;;-10.79;95.33
21129;BME280;10722;51.910;8.352;2022-12-18T03:51:24;102137.84;;;-10.77;95.89
21129;BME280;10722;51.910;8.352;2022-12-18T03:54:11;102129.63;;;-10.76;95.82
21129;BME280;10722;51.910;8.352;2022-12-18T03:57:01;102127.03;;;-10.64;95.65
21129;BME280;10722;51.910;8.352;2022-12-18T03:59:54;102121.56;;;-10.54;95.50
21129;BME280;10722;51.910;8.352;2022-12-18T04:02:44;102113.16;;;-10.54;95.60
21129;BME280;10722;51.910;8.352;2022-12-18T04:05:32;102119.19;;;-10.59;95.33
21129;BME280;10722;51.910;8.352;2022-12-18T04:08:19;102122.06;;;-10.56;95.60
21129;BME280;10722;51.910;8.352;2022-12-18T04:11:06;102134.81;;;-10.48;95.96
21129;BME280;10722;51.910;8.352;2022-12-18T04:13:56;102124.84;;;-10.68;95.89
21129;BME280;10722;51.910;8.352;2022-12-18T04:16:42;102127.94;;;-10.63;95.73
21129;BME280;10722;51.910;8.352;2022-12-18T04:19:28;102127.47;;;-10.80;95.29
21129;BME280;10722;51.910;8.352;2022-12-18T04:22:13;102135.47;;;-10.56;95.52
21129;BME280;10722;51.910;8.352;2022-12-18T04:24:58;102131.53;;;-10.61;95.25
21129;BME280;10722;51.910;8.352;2022-12-18T04:27:44;102135.09;;;-10.59;95.08
21129;BME280;10722;51.910;8.352;2022-12-18T04:30:29;102134.06;;;-10.54;95.33
21129;BME280;10722;51.910;8.352;2022-12-18T04:33:18;102129.72;;;-10.62;95.29
21129;BME280;10722;51.910;8.352;2022-12-18T04:36:04;102131.84;;;-10.38;95.35
21129;BME280;10722;51.910;8.352;2022-12-18T04:38:50;102136.38;;;-10.21;95.06
21129;BME280;10722;51.910;8.352;2022-12-18T04:41:35;102130.28;;;-10.23;95.18
21129;BME280;10722;51.910;8.352;2022-12-18T04:44:20;102136.03;;;-10.17;95.61
21129;BME280;10722;51.910;8.352;2022-12-18T04:47:06;102138.59;;;-10.10;95.54
21129;BME280;10722;51.910;8.352;2022-12-18T04:49:51;102147.00;;;-10.02;95.73
21129;BME280;10722;51.910;8.352;2022-12-18T04:52:36;102152.63;;;-9.90;96.27
21129;BME280;10722;51.910;8.352;2022-12-18T04:55:25;102147.84;;;-9.82;96.04
21129;BME280;10722;51.910;8.352;2022-12-18T04:58:10;102149.81;;;-9.79;96.55
21129;BME280;10722;51.910;8.352;2022-12-18T05:00:55;102142.47;;;-9.78;96.40
21129;BME280;10722;51.910;8.352;2022-12-18T05:03:41;102153.25;;;-9.64;96.73
21129;BME280;10722;51.910;8.352;2022-12-18T05:06:27;102166.06;;;-9.34;97.71
21129;BME280;10722;51.910;8.352;2022-12-18T05:09:12;102170.78;;;-9.09;98.88
21129;BME280;10722;51.910;8.352;2022-12-18T05:11:58;102186.94;;;-8.92;99.46
21129;BME280;10722;51.910;8.352;2022-12-18T05:14:43;102189.06;;;-8.74;99.96
21129;BME280;10722;51.910;8.352;2022-12-18T05:17:28;102186.94;;;-8.64;100.00
21129;BME280;10722;51.910;8.352;2022-12-18T05:20:14;102189.44;;;-8.49;100.00
21129;BME280;10722;51.910;8.352;2022-12-18T05:22:59;102192.25;;;-8.32;100.00
21129;BME280;10722;51.910;8.352;2022-12-18T05:25:53;102198.69;;;-8.27;100.00
21129;BME280;10722;51.910;8.352;2022-12-18T05:28:39;102205.81;;;-8.08;100.00
21129;BME280;10722;51.910;8.352;2022-12-18T05:31:24;102218.31;;;-7.80;100.00
21129;BME280;10722;51.910;8.352;2022-12-18T05:34:09;102208.66;;;-7.77;100.00
21129;BME280;10722;51.910;8.352;2022-12-18T05:36:55;102207.75;;;-7.92;100.00
21129;BME280;10722;51.910;8.352;2022-12-18T05:39:42;102212.63;;;-8.00;100.00
21129;BME280;10722;51.910;8.352;2022-12-18T05:42:27;102203.31;;;-8.08;100.00
21129;BME280;10722;51.910;8.352;2022-12-18T05:45:13;102198.84;;;-8.11;100.00
21129;BME280;10722;51.910;8.352;2022-12-18T05:47:58;102189.53;;;-8.05;100.00
21129;BME280;10722;51.910;8.352;2022-12-18T05:50:44;102191.31;;;-8.04;100.00
21129;BME280;10722;51.910;8.352;2022-12-18T05:53:30;102193.28;;;-8.08;100.00
21129;BME280;10722;51.910;8.352;2022-12-18T05:56:18;102193.22;;;-7.94;100.00
21129;BME280;10722;51.910;8.352;2022-12-18T05:59:04;102195.78;;;-8.01;100.00
21129;BME280;10722;51.910;8.352;2022-12-18T06:01:49;102193.97;;;-7.95;100.00
21129;BME280;10722;51.910;8.352;2022-12-18T06:04:34;102194.66;;;-7.82;100.00
21129;BME280;10722;51.910;8.352;2022-12-18T06:07:20;102184.06;;;-7.79;100.00
21129;BME280;10722;51.910;8.352;2022-12-18T06:10:05;102193.00;;;-7.74;100.00
21129;BME280;10722;51.910;8.352;2022-12-18T06:12:51;102191.75;;;-7.71;100.00
21129;BME280;10722;51.910;8.352;2022-12-18T06:15:37;102203.22;;;-7.73;100.00
21129;BME280;10722;51.910;8.352;2022-12-18T06:18:22;102195.84;;;-7.64;100.00
21129;BME280;10722;51.910;8.352;2022-12-18T06:21:08;102198.88;;;-7.59;100.00
21129;BME280;10722;51.910;8.352;2022-12-18T06:23:53;102198.00;;;-7.60;100.00
21129;BME280;10722;51.910;8.352;2022-12-18T06:26:39;102206.72;;;-7.49;100.00
21129;BME280;10722;51.910;8.352;2022-12-18T06:29:25;102210.50;;;-7.46;100.00
21129;BME280;10722;51.910;8.352;2022-12-18T06:32:10;102213.75;;;-7.54;100.00
21129;BME280;10722;51.910;8.352;2022-12-18T06:34:59;102212.47;;;-7.50;100.00
21129;BME280;10722;51.910;8.352;2022-12-18T06:37:48;102206.03;;;-7.55;100.00
21129;BME280;10722;51.910;8.352;2022-12-18T06:40:37;102214.09;;;-7.51;100.00
21129;BME280;10722;51.910;8.352;2022-12-18T06:43:23;102216.22;;;-7.47;100.00
21129;BME280;10722;51.910;8.352;2022-12-18T06:46:09;102223.97;;;-7.45;100.00
21129;BME280;10722;51.910;8.352;2022-12-18T06:48:55;102224.72;;;-7.53;100.00
21129;BME280;10722;51.910;8.352;2022-12-18T06:51:42;102216.44;;;-7.52;100.00
21129;BME280;10722;51.910;8.352;2022-12-18T06:54:27;102227.69;;;-7.41;100.00
21129;BME280;10722;51.910;8.352;2022-12-18T06:57:12;102226.75;;;-7.35;100.00
21129;BME280;10722;51.910;8.352;2022-12-18T06:59:59;102228.56;;;-7.34;100.00
21129;BME280;10722;51.910;8.352;2022-12-18T07:02:44;102231.78;;;-7.35;100.00
21129;BME280;10722;51.910;8.352;2022-12-18T07:05:30;102234.28;;;-7.28;100.00
21129;BME280;10722;51.910;8.352;2022-12-18T07:08:15;102224.03;;;-7.22;100.00
21129;BME280;10722;51.910;8.352;2022-12-18T07:11:03;102221.13;;;-7.18;100.00
21129;BME280;10722;51.910;8.352;2022-12-18T07:13:49;102218.59;;;-7.18;100.00
21129;BME280;10722;51.910;8.352;2022-12-18T07:16:34;102217.63;;;-7.04;100.00
21129;BME280;10722;51.910;8.352;2022-12-18T07:19:23;102216.50;;;-6.92;100.00
21129;BME280;10722;51.910;8.352;2022-12-18T07:22:09;102220.78;;;-6.91;100.00
21129;BME280;10722;51.910;8.352;2022-12-18T07:24:54;102231.53;;;-6.85;100.00
21129;BME280;10722;51.910;8.352;2022-12-18T07:27:40;102222.13;;;-6.79;100.00
21129;BME280;10722;51.910;8.352;2022-12-18T07:30:25;102217.94;;;-6.71;100.00
21129;BME280;10722;51.910;8.352;2022-12-18T07:33:10;102214.13;;;-6.67;100.00
21129;BME280;10722;51.910;8.352;2022-12-18T07:35:55;102221.25;;;-6.56;100.00
21129;BME280;10722;51.910;8.352;2022-12-18T07:38:41;102211.16;;;-6.56;100.00
21129;BME280;10722;51.910;8.352;2022-12-18T07:41:27;102223.19;;;-6.54;100.00
21129;BME280;10722;51.910;8.352;2022-12-18T07:44:13;102224.91;;;-6.61;100.00
21129;BME280;10722;51.910;8.352;2022-12-18T07:46:59;102219.41;;;-6.50;100.00
21129;BME280;10722;51.910;8.352;2022-12-18T07:49:46;102221.25;;;-6.56;100.00
21129;BME280;10722;51.910;8.352;2022-12-18T07:52:45;102222.19;;;-6.40;100.00
21129;BME280;10722;51.910;8.352;2022-12-18T07:55:34;102222.19;;;-6.40;100.00
21129;BME280;10722;51.910;8.352;2022-12-18T07:58:48;102211.34;;;-6.32;100.00
21129;BME280;10722;51.910;8.352;2022-12-18T08:01:33;102200.78;;;-6.20;100.00
21129;BME280;10722;51.910;8.352;2022-12-18T08:04:19;102188.63;;;-6.24;100.00
21129;BME280;10722;51.910;8.352;2022-12-18T08:07:05;102196.31;;;-6.23;100.00
21129;BME280;10722;51.910;8.352;2022-12-18T08:09:50;102190.97;;;-6.10;100.00
21129;BME280;10722;51.910;8.352;2022-12-18T08:12:35;102193.84;;;-6.07;100.00
21129;BME280;10722;51.910;8.352;2022-12-18T08:15:21;102184.16;;;-5.95;100.00
21129;BME280;10722;51.910;8.352;2022-12-18T08:18:06;102186.41;;;-5.90;100.00
21129;BME280;10722;51.910;8.352;2022-12-18T08:21:13;102177.22;;;-5.73;100.00
21129;BME280;10722;51.910;8.352;2022-12-18T08:24:00;102176.41;;;-5.65;100.00
21129;BME280;10722;51.910;8.352;2022-12-18T08:26:47;102164.50;;;-5.66;100.00
21129;BME280;10722;51.910;8.352;2022-12-18T08:29:46;102158.91;;;-5.64;100.00
21129;BME280;10722;51.910;8.352;2022-12-18T08:32:31;102158.97;;;-5.55;100.00
21129;BME280;10722;51.910;8.352;2022-12-18T08:35:17;102162.59;;;-5.44;100.00
21129;BME280;10722;51.910;8.352;2022-12-18T08:38:03;102163.34;;;-5.29;100.00
21129;BME280;10722;51.910;8.352;2022-12-18T08:40:49;102158.59;;;-5.26;100.00
21129;BME280;10722;51.910;8.352;2022-12-18T08:43:34;102154.44;;;-5.26;100.00
21129;BME280;10722;51.910;8.352;2022-12-18T08:46:21;102155.88;;;-5.12;100.00
21129;BME280;10722;51.910;8.352;2022-12-18T08:49:16;102158.56;;;-5.02;100.00
21129;BME280;10722;51.910;8.352;2022-12-18T08:52:02;102154.28;;;-5.03;100.00
21129;BME280;10722;51.910;8.352;2022-12-18T08:54:52;102155.38;;;-4.92;100.00
21129;BME280;10722;51.910;8.352;2022-12-18T08:57:54;102156.31;;;-4.83;100.00
21129;BME280;10722;51.910;8.352;2022-12-18T09:00:41;102158.47;;;-4.70;100.00
21129;BME280;10722;51.910;8.352;2022-12-18T09:03:29;102146.28;;;-4.65;100.00
21129;BME280;10722;51.910;8.352;2022-12-18T09:06:17;102128.91;;;-4.62;100.00
21129;BME280;10722;51.910;8.352;2022-12-18T09:09:17;102133.72;;;-4.48;100.00
21129;BME280;10722;51.910;8.352;2022-12-18T09:12:03;102130.78;;;-4.35;100.00
21129;BME280;10722;51.910;8.352;2022-12-18T09:15:03;102137.50;;;-4.27;100.00
21129;BME280;10722;51.910;8.352;2022-12-18T09:17:54;102136.16;;;-4.23;100.00
21129;BME280;10722;51.910;8.352;2022-12-18T09:21:19;102139.44;;;-4.16;99.99
21129;BME280;10722;51.910;8.352;2022-12-18T09:24:26;102137.69;;;-4.08;99.79
21129;BME280;10722;51.910;8.352;2022-12-18T09:27:12;102131.59;;;-4.01;100.00
21129;BME280;10722;51.910;8.352;2022-12-18T09:29:59;102121.31;;;-3.94;99.87
21129;BME280;10722;51.910;8.352;2022-12-18T09:32:45;102123.72;;;-3.87;99.83
21129;BME280;10722;51.910;8.352;2022-12-18T09:35:46;102126.41;;;-3.77;99.67
21129;BME280;10722;51.910;8.352;2022-12-18T09:38:31;102120.59;;;-3.67;99.37
21129;BME280;10722;51.910;8.352;2022-12-18T09:44:45;102107.91;;;-3.50;98.67
21129;BME280;10722;51.910;8.352;2022-12-18T09:47:37;102107.31;;;-3.47;98.36
21129;BME280;10722;51.910;8.352;2022-12-18T09:50:29;102109.72;;;-3.40;98.18
21129;BME280;10722;51.910;8.352;2022-12-18T09:53:24;102110.72;;;-3.21;98.20
21129;BME280;10722;51.910;8.352;2022-12-18T09:56:16;102106.94;;;-3.07;97.69
21129;BME280;10722;51.910;8.352;2022-12-18T09:59:04;102113.28;;;-2.93;97.22
21129;BME280;10722;51.910;8.352;2022-12-18T10:01:50;102099.88;;;-2.92;96.72
21129;BME280;10722;51.910;8.352;2022-12-18T10:04:36;102094.34;;;-2.88;96.30
21129;BME280;10722;51.910;8.352;2022-12-18T10:11:01;102072.34;;;-2.42;95.37
21129;BME280;10722;51.910;8.352;2022-12-18T10:13:54;102061.81;;;-2.28;94.60
21129;BME280;10722;51.910;8.352;2022-12-18T10:16:52;102048.53;;;-2.07;93.78
21129;BME280;10722;51.910;8.352;2022-12-18T10:19:46;102024.59;;;-2.00;92.96
21129;BME280;10722;51.910;8.352;2022-12-18T10:22:39;102008.41;;;-1.92;92.56
21129;BME280;10722;51.910;8.352;2022-12-18T10:26:03;101967.19;;;-1.99;91.64
21129;BME280;10722;51.910;8.352;2022-12-18T10:28:49;101970.00;;;-1.86;92.18
21129;BME280;10722;51.910;8.352;2022-12-18T10:31:37;101949.44;;;-1.89;91.43
21129;BME280;10722;51.910;8.352;2022-12-18T10:34:23;101916.00;;;-1.75;90.13
21129;BME280;10722;51.910;8.352;2022-12-18T10:37:16;101925.50;;;-1.33;89.87
21129;BME280;10722;51.910;8.352;2022-12-18T10:40:12;101907.88;;;-1.01;88.47
21129;BME280;10722;51.910;8.352;2022-12-18T10:43:14;101871.56;;;-1.30;87.51
21129;BME280;10722;51.910;8.352;2022-12-18T10:46:20;101856.44;;;-1.49;86.72
21129;BME280;10722;51.910;8.352;2022-12-18T10:49:18;101863.16;;;-1.50;86.92
21129;BME280;10722;51.910;8.352;2022-12-18T10:52:17;101862.03;;;-1.53;86.88
21129;BME280;10722;51.910;8.352;2022-12-18T10:55:16;101850.22;;;-1.53;86.64
21129;BME280;10722;51.910;8.352;2022-12-18T10:58:27;101844.09;;;-1.55;86.38
21129;BME280;10722;51.910;8.352;2022-12-18T11:04:33;101814.31;;;-1.58;85.65
21129;BME280;10722;51.910;8.352;2022-12-18T11:07:20;101802.13;;;-1.62;85.42
21129;BME280;10722;51.910;8.352;2022-12-18T11:10:18;101810.34;;;-1.44;85.94
21129;BME280;10722;51.910;8.352;2022-12-18T11:13:19;101795.16;;;-1.54;85.45
21129;BME280;10722;51.910;8.352;2022-12-18T11:16:06;101793.13;;;-1.48;85.35
21129;BME280;10722;51.910;8.352;2022-12-18T11:18:51;101779.91;;;-1.33;85.00
21129;BME280;10722;51.910;8.352;2022-12-18T11:21:41;101746.41;;;-1.29;84.21
21129;BME280;10722;51.910;8.352;2022-12-18T11:24:32;101726.09;;;-1.29;83.72
21129;BME280;10722;51.910;8.352;2022-12-18T11:27:19;101719.94;;;-1.21;83.13
21129;BME280;10722;51.910;8.352;2022-12-18T11:33:09;101716.13;;;-1.06;82.92
21129;BME280;10722;51.910;8.352;2022-12-18T11:36:09;101709.47;;;-0.94;82.43
21129;BME280;10722;51.910;8.352;2022-12-18T11:38:56;101693.09;;;-0.97;81.59
21129;BME280;10722;51.910;8.352;2022-12-18T11:42:19;101700.63;;;-0.77;81.73
21129;BME280;10722;51.910;8.352;2022-12-18T11:48:25;101644.22;;;-0.73;80.09
21129;BME280;10722;51.910;8.352;2022-12-18T11:51:26;101621.03;;;-0.87;79.27
21129;BME280;10722;51.910;8.352;2022-12-18T11:54:13;101624.34;;;-0.66;79.17
21129;BME280;10722;51.910;8.352;2022-12-18T12:03:18;101582.25;;;-0.63;78.57
21129;BME280;10722;51.910;8.352;2022-12-18T12:09:13;101553.78;;;-0.59;77.60
21129;BME280;10722;51.910;8.352;2022-12-18T12:12:22;101529.91;;;-0.61;77.18
21129;BME280;10722;51.910;8.352;2022-12-18T12:15:45;101530.13;;;-0.58;76.84
21129;BME280;10722;51.910;8.352;2022-12-18T12:18:56;101520.38;;;-0.63;76.51
21129;BME280;10722;51.910;8.352;2022-12-18T12:22:04;101502.16;;;-0.70;76.16
21129;BME280;10722;51.910;8.352;2022-12-18T12:31:18;101477.19;;;-0.63;75.52
21129;BME280;10722;51.910;8.352;2022-12-18T12:37:19;101467.59;;;-0.56;74.98
21129;BME280;10722;51.910;8.352;2022-12-18T12:40:13;101463.25;;;-0.57;74.40
21129;BME280;10722;51.910;8.352;2022-12-18T12:43:35;101450.69;;;-0.43;73.81
21129;BME280;10722;51.910;8.352;2022-12-18T12:46:37;101478.22;;;-0.38;74.69
21129;BME280;10722;51.910;8.352;2022-12-18T12:49:29;101464.19;;;-0.44;73.61
21129;BME280;10722;51.910;8.352;2022-12-18T12:52:37;101455.25;;;-0.28;73.34
21129;BME280;10722;51.910;8.352;2022-12-18T12:55:27;101446.84;;;-0.38;73.27
21129;BME280;10722;51.910;8.352;2022-12-18T13:04:49;101412.47;;;-0.33;72.98
21129;BME280;10722;51.910;8.352;2022-12-18T13:07:47;101414.88;;;-0.35;73.19
21129;BME280;10722;51.910;8.352;2022-12-18T13:10:40;101399.06;;;-0.42;72.87
21129;BME280;10722;51.910;8.352;2022-12-18T13:13:53;101412.34;;;-0.35;72.99
21129;BME280;10722;51.910;8.352;2022-12-18T13:16:38;101387.13;;;-0.43;72.42
21129;BME280;10722;51.910;8.352;2022-12-18T13:19:26;101392.88;;;-0.34;72.47
21129;BME280;10722;51.910;8.352;2022-12-18T13:22:50;101374.84;;;-0.37;72.42
21129;BME280;10722;51.910;8.352;2022-12-18T13:25:36;101368.34;;;-0.34;72.15
21129;BME280;10722;51.910;8.352;2022-12-18T13:28:49;101374.09;;;-0.36;72.25
21129;BME280;10722;51.910;8.352;2022-12-18T13:34:26;101342.16;;;-0.33;71.30
21129;BME280;10722;51.910;8.352;2022-12-18T13:37:41;101342.81;;;-0.35;71.25
21129;BME280;10722;51.910;8.352;2022-12-18T13:40:55;101348.47;;;-0.39;71.50
21129;BME280;10722;51.910;8.352;2022-12-18T13:43:45;101323.69;;;-0.30;70.65
21129;BME280;10722;51.910;8.352;2022-12-18T13:46:46;101340.47;;;-0.32;71.21
21129;BME280;10722;51.910;8.352;2022-12-18T13:49:41;101335.63;;;-0.41;71.21
21129;BME280;10722;51.910;8.352;2022-12-18T13:52:34;101320.34;;;-0.29;70.75
21129;BME280;10722;51.910;8.352;2022-12-18T13:55:22;101328.97;;;-0.27;70.81
21129;BME280;10722;51.910;8.352;2022-12-18T13:58:11;101319.59;;;-0.28;70.36
21129;BME280;10722;51.910;8.352;2022-12-18T14:01:00;101303.34;;;-0.30;69.78
21129;BME280;10722;51.910;8.352;2022-12-18T14:03:49;101298.09;;;-0.20;69.87
21129;BME280;10722;51.910;8.352;2022-12-18T14:06:35;101303.56;;;-0.27;69.98
21129;BME280;10722;51.910;8.352;2022-12-18T14:09:25;101316.25;;;-0.27;69.92
21129;BME280;10722;51.910;8.352;2022-12-18T14:12:20;101303.56;;;-0.27;69.99
21129;BME280;10722;51.910;8.352;2022-12-18T14:15:21;101309.88;;;-0.34;69.86
21129;BME280;10722;51.910;8.352;2022-12-18T14:42:37;101271.50;;;-0.25;68.58
21129;BME280;10722;51.910;8.352;2022-12-18T14:49:26;101298.72;;;-0.36;69.23
21129;BME280;10722;51.910;8.352;2022-12-18T14:52:26;101291.38;;;-0.31;69.41
21129;BME280;10722;51.910;8.352;2022-12-18T14:55:17;101312.97;;;-0.38;69.99
21129;BME280;10722;51.910;8.352;2022-12-18T14:58:04;101284.00;;;-0.40;69.36
21129;BME280;10722;51.910;8.352;2022-12-18T15:00:53;101278.81;;;-0.41;69.49
21129;BME280;10722;51.910;8.352;2022-12-18T15:03:43;101300.03;;;-0.41;69.62
21129;BME280;10722;51.910;8.352;2022-12-18T15:09:24;101329.53;;;-0.43;70.11
21129;BME280;10722;51.910;8.352;2022-12-18T15:12:26;101339.84;;;-0.53;70.23
21129;BME280;10722;51.910;8.352;2022-12-18T15:18:21;101341.16;;;-0.58;70.85
21129;BME280;10722;51.910;8.352;2022-12-18T15:21:17;101353.09;;;-0.57;70.88
21129;BME280;10722;51.910;8.352;2022-12-18T15:24:26;101341.84;;;-0.61;71.11
21129;BME280;10722;51.910;8.352;2022-12-18T15:27:47;101351.78;;;-0.64;71.14
21129;BME280;10722;51.910;8.352;2022-12-18T15:30:36;101357.31;;;-0.70;71.47
21129;BME280;10722;51.910;8.352;2022-12-18T15:33:29;101358.19;;;-0.69;71.56
21129;BME280;10722;51.910;8.352;2022-12-18T15:40:08;101354.19;;;-0.77;72.01
21129;BME280;10722;51.910;8.352;2022-12-18T15:43:14;101348.66;;;-0.72;71.54
21129;BME280;10722;51.910;8.352;2022-12-18T15:46:27;101335.09;;;-0.72;71.66
21129;BME280;10722;51.910;8.352;2022-12-18T15:49:25;101328.69;;;-0.67;71.88
21129;BME280;10722;51.910;8.352;2022-12-18T15:52:46;101322.16;;;-0.75;71.51
21129;BME280;10722;51.910;8.352;2022-12-18T15:55:55;101328.78;;;-0.77;71.92
21129;BME280;10722;51.910;8.352;2022-12-18T15:58:55;101322.25;;;-0.85;72.05
21129;BME280;10722;51.910;8.352;2022-12-18T16:02:23;101323.69;;;-0.77;71.95
21129;BME280;10722;51.910;8.352;2022-12-18T16:05:35;101322.16;;;-0.75;71.61
21129;BME280;10722;51.910;8.352;2022-12-18T16:08:24;101300.38;;;-0.72;71.23
21129;BME280;10722;51.910;8.352;2022-12-18T16:11:23;101292.78;;;-0.72;70.91
21129;BME280;10722;51.910;8.352;2022-12-18T16:14:36;101277.66;;;-0.70;70.58
21129;BME280;10722;51.910;8.352;2022-12-18T16:17:54;101271.56;;;-0.72;70.78
21129;BME280;10722;51.910;8.352;2022-12-18T16:20:48;101277.75;;;-0.80;71.06
21129;BME280;10722;51.910;8.352;2022-12-18T16:23:38;101266.28;;;-0.75;70.77
21129;BME280;10722;51.910;8.352;2022-12-18T16:26:37;101256.09;;;-0.75;70.63
21129;BME280;10722;51.910;8.352;2022-12-18T16:29:29;101274.56;;;-0.78;70.88